Time;durP1;ratioP1;P1;durP2;ratioP2;P2;SDS_P1;SDS_P2;PMS_P1;PMS_P2;Temp;Humidity;BMP_temperature;BMP_pressure;BME280_temperature;BME280_humidity;BME280_pressure;Samples;Min_cycle;Max_cycle;Signal;HPM_P1;HPM_P2
2021/12/14 00:02:27;;;;;;;28.42;13.73;;;;;;;;;;5032804;28;20049;-69
2021/12/14 00:04:55;;;;;;;40.97;14.00;;;6.30;99.90;;;;;;5032164;28;20486;-69
2021/12/14 00:07:21;;;;;;;26.85;14.35;;;;;;;;;;5032951;28;20032;-70
2021/12/14 00:09:48;;;;;;;32.58;13.60;;;;;;;;;;5033247;28;20056;-70
2021/12/14 00:15:17;;;;;;;32.13;14.38;;;6.60;99.90;;;;;;5009434;28;20396;-68
2021/12/14 00:17:59;;;;;;;30.35;14.73;;;5.20;99.90;;;;;;5032529;28;20036;-70
2021/12/14 00:20:38;;;;;;;31.20;12.40;;;7.40;99.90;;;;;;5022764;28;20022;-70
2021/12/14 00:25:42;;;;;;;33.22;12.80;;;6.30;99.90;;;;;;5028755;28;20034;-69
2021/12/14 00:28:10;;;;;;;30.85;13.82;;;5.90;99.90;;;;;;5012120;28;20029;-69
2021/12/14 00:30:37;;;;;;;34.13;13.48;;;6.40;99.90;;;;;;5012101;28;20034;-68
2021/12/14 00:33:11;;;;;;;33.58;14.20;;;5.90;99.90;;;;;;5009830;28;20029;-68
2021/12/14 00:35:38;;;;;;;34.72;14.38;;;5.90;99.90;;;;;;5011636;28;20026;-68
2021/12/14 00:38:04;;;;;;;33.85;14.10;;;6.40;99.90;;;;;;5011461;28;20041;-68
2021/12/14 00:40:38;;;;;;;31.42;13.52;;;6.10;99.90;;;;;;5011430;28;20018;-69
2021/12/14 00:43:05;;;;;;;30.90;13.32;;;5.50;99.90;;;;;;5009456;28;20020;-68
2021/12/14 00:45:36;;;;;;;31.35;13.88;;;6.70;99.90;;;;;;5010782;28;20038;-68
2021/12/14 00:48:04;;;;;;;29.55;13.35;;;5.90;99.90;;;;;;5011220;28;20076;-68
2021/12/14 00:50:31;;;;;;;27.83;12.65;;;5.90;99.90;;;;;;5024617;28;20048;-68
2021/12/14 00:52:58;;;;;;;31.85;12.82;;;5.90;99.90;;;;;;5030416;28;20025;-68
2021/12/14 00:55:30;;;;;;;28.42;12.77;;;6.00;99.90;;;;;;5030681;28;20598;-69
2021/12/14 00:57:55;;;;;;;;;;;5.20;99.90;;;;;;5031295;28;20060;-67
2021/12/14 01:00:25;;;;;;;28.08;12.15;;;5.50;99.90;;;;;;5030515;28;20422;-70
2021/12/14 01:02:51;;;;;;;25.00;11.60;;;6.40;99.90;;;;;;5030769;28;20018;-69
2021/12/14 01:05:31;;;;;;;34.53;14.07;;;5.90;99.90;;;;;;5030696;28;20376;-69
2021/12/14 01:07:58;;;;;;;28.50;12.07;;;5.70;99.90;;;;;;5031131;28;20025;-69
2021/12/14 01:10:36;;;;;;;25.42;12.60;;;6.50;99.90;;;;;;5067322;23;20171;-61
2021/12/14 01:13:06;;;;;;;25.50;11.98;;;6.30;99.90;;;;;;5029924;28;20080;-61
2021/12/14 01:16:13;;;;;;;20.55;10.05;;;7.20;99.90;;;;;;5030981;28;20033;-62
2021/12/14 01:24:02;;;;;;;17.27;9.20;;;6.10;99.90;;;;;;5029931;28;20506;-62
2021/12/14 01:26:30;;;;;;;19.15;9.80;;;6.00;99.90;;;;;;5034663;28;20601;-62
2021/12/14 01:28:56;;;;;;;17.75;10.65;;;6.30;99.90;;;;;;5034328;28;20384;-61
2021/12/14 01:31:32;;;;;;;19.75;10.27;;;5.80;99.90;;;;;;5034717;28;20041;-62
2021/12/14 01:34:13;;;;;;;17.20;9.77;;;4.90;99.90;;;;;;5038540;28;20111;-62
2021/12/14 01:36:46;;;;;;;14.82;9.23;;;5.90;99.90;;;;;;5053136;28;20025;-64
2021/12/14 01:41:47;;;;;;;19.65;9.75;;;5.40;99.90;;;;;;5054612;28;20106;-61
2021/12/14 01:44:14;;;;;;;18.27;9.57;;;5.40;99.90;;;;;;5053404;28;20551;-61
2021/12/14 01:46:44;;;;;;;18.70;9.98;;;5.40;99.90;;;;;;5054235;28;20443;-61
2021/12/14 01:49:13;;;;;;;16.20;9.20;;;6.30;99.90;;;;;;5054224;28;20037;-62
2021/12/14 01:51:42;;;;;;;13.95;9.23;;;5.20;99.90;;;;;;5054457;28;20077;-63
2021/12/14 01:54:12;;;;;;;13.32;8.05;;;5.40;99.90;;;;;;5053523;28;20077;-61
2021/12/14 01:56:38;;;;;;;14.35;8.98;;;6.50;99.90;;;;;;5053747;28;20102;-61
2021/12/14 01:59:23;;;;;;;21.10;9.77;;;5.50;99.90;;;;;;5041148;28;20029;-61
2021/12/14 02:02:07;;;;;;;16.42;9.45;;;;;;;;;;5034260;28;20026;-61
2021/12/14 02:04:34;;;;;;;19.10;8.73;;;5.50;99.90;;;;;;5033426;28;20025;-61
2021/12/14 02:07:04;;;;;;;14.70;8.10;;;5.40;99.90;;;;;;5033908;28;20147;-61
2021/12/14 02:09:31;;;;;;;17.67;9.48;;;;;;;;;;5033983;28;20103;-61
2021/12/14 02:12:01;;;;;;;13.73;7.60;;;5.40;99.90;;;;;;5034599;28;20032;-61
2021/12/14 02:14:27;;;;;;;12.25;7.63;;;5.90;99.90;;;;;;5049569;28;20035;-62
2021/12/14 02:16:57;;;;;;;15.07;8.02;;;4.50;99.90;;;;;;5061764;28;20063;-62
2021/12/14 02:19:23;;;;;;;12.40;6.97;;;5.60;99.90;;;;;;5054564;28;20104;-61
2021/12/14 02:21:51;;;;;;;14.13;8.05;;;5.40;99.90;;;;;;5052377;28;20025;-62
2021/12/14 02:24:21;;;;;;;14.52;7.90;;;6.70;99.90;;;;;;5053006;28;20021;-62
2021/12/14 02:26:48;;;;;;;19.60;8.38;;;5.30;99.90;;;;;;5053498;28;20021;-62
2021/12/14 02:29:48;;;;;;;15.38;8.00;;;5.40;99.90;;;;;;5053598;28;20020;-62
2021/12/14 02:32:19;;;;;;;19.40;8.32;;;5.60;99.90;;;;;;5057389;28;20032;-62
2021/12/14 02:34:49;;;;;;;13.82;7.70;;;5.20;99.90;;;;;;5053900;28;20025;-60
2021/12/14 02:37:16;;;;;;;15.60;7.78;;;4.50;99.90;;;;;;5053658;28;20029;-63
2021/12/14 02:42:21;;;;;;;21.42;8.60;;;4.50;99.90;;;;;;5053204;28;20056;-61
2021/12/14 02:44:49;;;;;;;13.65;7.95;;;5.40;99.90;;;;;;5052464;28;20110;-60
2021/12/14 02:47:17;;;;;;;16.45;8.43;;;5.40;99.90;;;;;;5052923;28;20124;-60
2021/12/14 02:49:44;;;;;;;19.40;7.95;;;5.20;99.90;;;;;;5052638;28;20029;-61
2021/12/14 02:52:15;;;;;;;13.23;7.22;;;5.10;99.90;;;;;;5052812;28;20107;-60
2021/12/14 02:54:45;;;;;;;18.37;9.03;;;5.00;99.90;;;;;;5051854;28;20031;-60
2021/12/14 02:57:22;;;;;;;16.35;8.48;;;4.60;99.90;;;;;;5052507;28;20577;-62
2021/12/14 02:59:49;;;;;;;12.32;7.43;;;5.00;99.90;;;;;;5051553;28;20036;-60
2021/12/14 03:02:33;;;;;;;15.43;7.78;;;5.30;99.90;;;;;;5052812;28;20518;-62
2021/12/14 03:05:11;;;;;;;15.40;7.80;;;5.70;99.90;;;;;;5051793;28;20025;-61
2021/12/14 03:07:41;;;;;;;15.15;7.38;;;;;;;;;;5050770;28;20036;-61
2021/12/14 03:10:33;;;;;;;14.40;7.35;;;5.30;99.90;;;;;;5032242;28;20033;-62
2021/12/14 03:13:00;;;;;;;12.45;6.43;;;4.60;99.90;;;;;;5032066;28;20025;-62
2021/12/14 03:15:42;;;;;;;11.73;7.22;;;5.30;99.90;;;;;;5032711;28;20100;-62
2021/12/14 03:18:10;;;;;;;15.67;7.67;;;4.90;99.90;;;;;;5032396;28;20029;-62
2021/12/14 03:20:41;;;;;;;18.65;8.38;;;5.30;99.90;;;;;;5032667;28;20033;-62
2021/12/14 03:23:08;;;;;;;22.00;8.48;;;5.30;99.90;;;;;;5031619;28;20032;-62
2021/12/14 03:25:38;;;;;;;18.90;8.23;;;7.30;99.90;;;;;;5032245;28;20095;-62
2021/12/14 03:28:05;;;;;;;19.33;8.52;;;5.10;99.90;;;;;;5032249;28;20032;-61
2021/12/14 03:30:46;;;;;;;16.50;8.35;;;4.60;99.90;;;;;;5042886;28;20109;-61
2021/12/14 03:33:20;;;;;;;14.65;8.32;;;5.20;99.90;;;;;;5051011;28;20109;-61
2021/12/14 03:36:12;;;;;;;16.65;8.73;;;4.80;99.90;;;;;;5052032;28;20542;-62
2021/12/14 03:39:08;;;;;;;15.93;8.38;;;4.60;99.90;;;;;;5031789;28;20040;-62
2021/12/14 03:41:43;;;;;;;19.85;8.77;;;5.00;99.90;;;;;;5032082;28;20032;-60
2021/12/14 03:44:37;;;;;;;13.90;7.50;;;5.00;99.90;;;;;;5031494;28;20025;-62
2021/12/14 03:47:03;;;;;;;12.65;7.35;;;4.60;99.90;;;;;;5028939;28;20105;-62
2021/12/14 03:49:34;;;;;;;15.95;8.77;;;4.20;99.90;;;;;;5031894;28;20609;-62
2021/12/14 03:52:01;;;;;;;14.07;8.07;;;4.30;99.90;;;;;;5032215;28;20471;-61
2021/12/14 03:54:28;;;;;;;13.50;7.68;;;5.30;99.90;;;;;;5031304;28;20025;-60
2021/12/14 03:56:53;;;;;;;15.98;7.70;;;4.60;99.90;;;;;;5031857;28;20389;-62
2021/12/14 03:59:21;;;;;;;14.65;8.05;;;4.80;99.90;;;;;;5031201;28;20037;-62
2021/12/14 04:01:49;;;;;;;15.07;8.63;;;4.70;99.90;;;;;;5031190;28;20030;-60
2021/12/14 04:04:27;;;;;;;16.42;7.50;;;4.20;99.90;;;;;;5030626;28;20456;-63
2021/12/14 04:06:55;;;;;;;15.30;7.68;;;4.60;99.90;;;;;;5038804;28;20083;-63
2021/12/14 04:09:25;;;;;;;15.55;7.55;;;4.40;99.90;;;;;;5050493;28;20408;-60
2021/12/14 04:11:51;;;;;;;18.73;7.07;;;4.60;99.90;;;;;;5051346;28;20475;-63
2021/12/14 04:14:17;;;;;;;12.27;6.68;;;4.80;99.90;;;;;;5049934;28;20024;-63
2021/12/14 04:16:47;;;;;;;14.63;7.95;;;5.70;99.90;;;;;;5051056;28;20437;-62
2021/12/14 04:19:20;;;;;;;14.38;7.43;;;5.10;99.90;;;;;;5051061;28;20112;-62
2021/12/14 04:21:47;;;;;;;15.68;7.88;;;5.90;99.90;;;;;;5051258;28;20537;-62
2021/12/14 04:24:14;;;;;;;10.45;6.90;;;4.30;99.90;;;;;;5050580;28;20021;-62
2021/12/14 04:26:44;;;;;;;12.98;6.90;;;4.50;99.90;;;;;;5051090;28;20379;-63
2021/12/14 04:29:12;;;;;;;11.85;6.53;;;4.70;99.90;;;;;;5051149;28;20025;-63
2021/12/14 04:31:39;;;;;;;10.60;6.55;;;4.70;99.90;;;;;;5050784;28;20502;-64
2021/12/14 04:34:05;;;;;;;13.82;7.20;;;4.50;99.90;;;;;;5050161;28;20201;-63
2021/12/14 04:36:31;;;;;;;14.60;8.18;;;4.00;99.90;;;;;;5049573;28;20068;-62
2021/12/14 04:39:25;;;;;;;14.25;8.25;;;3.80;99.90;;;;;;5050854;28;20033;-62
2021/12/14 04:53:45;;;;;;;23.15;7.18;;;4.20;99.90;;;;;;5042791;28;20517;-61
2021/12/14 04:56:23;;;;;;;13.90;7.15;;;3.50;99.90;;;;;;5051313;28;20474;-63
2021/12/14 04:59:10;;;;;;;13.70;7.82;;;4.20;99.90;;;;;;5050393;28;20482;-62
2021/12/14 05:01:41;;;;;;;18.98;7.07;;;3.90;99.90;;;;;;5051232;28;20052;-63
2021/12/14 05:04:10;;;;;;;17.38;8.27;;;4.20;99.90;;;;;;5048580;28;20075;-63
2021/12/14 05:06:51;;;;;;;25.60;7.30;;;3.90;99.90;;;;;;5043058;28;20046;-63
2021/12/14 05:11:50;;;;;;;14.60;8.10;;;3.60;99.90;;;;;;5051426;28;20490;-62
2021/12/14 05:14:15;;;;;;;17.55;7.10;;;3.60;99.90;;;;;;5050461;28;20025;-62
2021/12/14 05:16:41;;;;;;;12.23;7.00;;;3.70;99.90;;;;;;5050817;28;20079;-61
2021/12/14 05:19:10;;;;;;;19.08;8.32;;;4.00;99.90;;;;;;5051110;28;20108;-61
2021/12/14 05:21:45;;;;;;;12.68;7.28;;;3.20;99.90;;;;;;5051365;28;20036;-62
2021/12/14 05:24:14;;;;;;;48.55;8.35;;;3.70;99.90;;;;;;5045601;28;20032;-70
2021/12/14 05:26:42;;;;;;;10.48;6.35;;;4.20;99.90;;;;;;5042007;28;20021;-69
2021/12/14 05:29:10;;;;;;;13.80;7.28;;;4.20;99.90;;;;;;5045266;28;20021;-69
2021/12/14 05:31:43;;;;;;;16.02;8.07;;;4.10;99.90;;;;;;5045154;28;20163;-69
2021/12/14 05:34:09;;;;;;;16.55;7.63;;;3.60;99.90;;;;;;5049510;28;20033;-68
2021/12/14 05:36:35;;;;;;;15.32;7.60;;;4.00;99.90;;;;;;5042355;28;20506;-68
2021/12/14 05:39:17;;;;;;;12.88;7.30;;;3.50;99.90;;;;;;5050910;28;20025;-69
2021/12/14 05:44:23;;;;;;;11.35;7.47;;;4.20;99.90;;;;;;5050517;28;20053;-69
2021/12/14 05:46:52;;;;;;;12.65;6.95;;;3.90;99.90;;;;;;5050488;28;20102;-69
2021/12/14 05:49:21;;;;;;;14.38;6.75;;;4.40;99.90;;;;;;5051079;28;20029;-75
2021/12/14 05:51:49;;;;;;;18.80;7.47;;;4.10;99.90;;;;;;5059849;28;20379;-76
2021/12/14 05:54:21;;;;;;;24.45;7.45;;;4.20;99.90;;;;;;5066841;28;20021;-74
2021/12/14 05:56:48;;;;;;;14.77;7.95;;;4.30;99.90;;;;;;5051829;28;20086;-75
2021/12/14 05:59:19;;;;;;;14.05;8.50;;;5.90;99.90;;;;;;5041905;28;20495;-75
2021/12/14 06:01:45;;;;;;;25.38;7.72;;;6.50;99.90;;;;;;5033016;28;20025;-68
2021/12/14 06:04:10;;;;;;;14.38;7.70;;;3.90;99.90;;;;;;5043932;28;20043;-68
2021/12/14 06:06:52;;;;;;;20.73;8.30;;;4.90;99.90;;;;;;5041741;28;20078;-67
2021/12/14 06:09:30;;;;;;;45.25;9.82;;;3.90;99.90;;;;;;5050564;28;20388;-68
2021/12/14 06:12:01;;;;;;;15.73;8.85;;;3.70;99.90;;;;;;5054193;28;20448;-68
2021/12/14 06:14:29;;;;;;;15.10;8.77;;;3.60;99.90;;;;;;5053771;28;20402;-68
2021/12/14 06:16:58;;;;;;;18.55;9.32;;;4.30;99.90;;;;;;5053716;28;20032;-70
2021/12/14 06:19:33;;;;;;;17.52;9.48;;;5.30;99.90;;;;;;5054081;28;20403;-70
2021/12/14 06:22:02;;;;;;;18.25;8.75;;;3.70;99.90;;;;;;5054107;28;20021;-69
2021/12/14 06:24:29;;;;;;;16.77;9.40;;;3.90;99.90;;;;;;5053655;28;20017;-70
2021/12/14 06:26:59;;;;;;;16.33;9.23;;;3.50;99.90;;;;;;5054043;28;20033;-69
2021/12/14 06:29:33;;;;;;;18.60;9.63;;;3.80;99.90;;;;;;5054324;28;20586;-70
2021/12/14 06:32:10;;;;;;;17.13;10.52;;;4.00;99.90;;;;;;5054006;28;20057;-69
2021/12/14 06:34:44;;;;;;;20.80;10.38;;;3.80;99.90;;;;;;5052528;28;20044;-70
2021/12/14 06:40:19;;;;;;;17.30;10.02;;;3.80;99.90;;;;;;5043416;28;20530;-69
2021/12/14 06:43:08;;;;;;;20.63;11.23;;;3.80;99.90;;;;;;5050084;28;20506;-70
2021/12/14 06:45:43;;;;;;;17.98;10.68;;;3.40;99.90;;;;;;5039451;28;20029;-71
2021/12/14 06:48:13;;;;;;;20.83;11.13;;;3.70;99.90;;;;;;5036141;28;20510;-70
2021/12/14 06:51:04;;;;;;;17.33;11.02;;;3.10;99.90;;;;;;5045917;28;20037;-67
2021/12/14 06:53:30;;;;;;;16.00;10.35;;;3.60;99.90;;;;;;5040196;28;20072;-70
2021/12/14 06:55:59;;;;;;;16.08;10.73;;;3.50;99.90;;;;;;5033375;28;20028;-69
2021/12/14 06:58:31;;;;;;;17.98;10.35;;;3.80;99.90;;;;;;5033460;28;20372;-70
2021/12/14 07:01:09;;;;;;;16.65;10.18;;;4.10;99.90;;;;;;5033877;28;20025;-70
2021/12/14 07:03:57;;;;;;;16.23;9.63;;;3.40;99.90;;;;;;5041166;28;20040;-69
2021/12/14 07:06:28;;;;;;;14.50;9.20;;;3.70;99.90;;;;;;5053555;28;20024;-70
2021/12/14 07:08:58;;;;;;;12.05;8.38;;;3.30;99.90;;;;;;5044660;28;20037;-69
2021/12/14 07:11:25;;;;;;;15.50;8.85;;;3.50;99.90;;;;;;5033540;28;20033;-68
2021/12/14 07:13:53;;;;;;;13.73;9.38;;;3.50;99.90;;;;;;5033046;28;20040;-70
2021/12/14 07:16:31;;;;;;;13.55;9.20;;;4.60;99.90;;;;;;5033622;28;20033;-70
2021/12/14 07:19:00;;;;;;;15.30;9.55;;;3.20;99.90;;;;;;5032845;28;20029;-68
2021/12/14 07:21:45;;;;;;;16.60;10.82;;;3.60;99.90;;;;;;5051423;28;20479;-71
2021/12/14 07:24:23;;;;;;;15.80;10.48;;;3.60;99.90;;;;;;5052667;28;20036;-73
2021/12/14 07:27:13;;;;;;;17.88;10.82;;;4.50;99.90;;;;;;5051870;28;20025;-71
2021/12/14 07:29:39;;;;;;;17.40;11.23;;;2.70;99.90;;;;;;5052968;28;20036;-71
2021/12/14 07:32:06;;;;;;;16.20;10.60;;;3.30;99.90;;;;;;5052599;28;20364;-70
2021/12/14 07:34:32;;;;;;;37.53;20.60;;;3.70;99.90;;;;;;5051800;28;20025;-70
2021/12/14 07:36:57;;;;;;;15.88;10.57;;;3.50;99.90;;;;;;5048379;28;20065;-63
2021/12/14 07:39:23;;;;;;;16.05;10.57;;;3.50;99.90;;;;;;5047610;28;20119;-63
2021/12/14 07:42:00;;;;;;;16.05;10.73;;;3.80;99.90;;;;;;5052647;28;20025;-62
2021/12/14 07:44:27;;;;;;;16.73;11.07;;;3.50;99.90;;;;;;5051634;28;20386;-64
2021/12/14 07:46:59;;;;;;;15.00;10.88;;;2.90;99.90;;;;;;5052241;28;20036;-64
2021/12/14 07:49:24;;;;;;;15.45;10.45;;;3.40;99.90;;;;;;5052287;28;20522;-62
2021/12/14 07:52:08;;;;;;;15.60;9.43;;;3.80;99.90;;;;;;5052552;28;20025;-62
2021/12/14 07:54:48;;;;;;;14.05;8.52;;;3.60;99.90;;;;;;5051698;28;20104;-63
2021/12/14 07:57:24;;;;;;;11.13;7.65;;;3.50;99.90;;;;;;5052325;28;20087;-62
2021/12/14 07:59:54;;;;;;;11.55;7.85;;;3.60;99.90;;;;;;5052191;28;20040;-63
2021/12/14 08:02:24;;;;;;;19.63;11.43;;;3.30;99.90;;;;;;5053201;28;20013;-63
2021/12/14 08:04:56;;;;;;;13.68;8.70;;;4.00;99.90;;;;;;5050142;28;20033;-62
2021/12/14 08:07:35;;;;;;;14.15;8.82;;;4.10;99.90;;;;;;5045725;28;20044;-63
2021/12/14 08:10:11;;;;;;;10.27;7.70;;;4.20;99.90;;;;;;5041022;28;20044;-63
2021/12/14 08:12:57;;;;;;;10.13;7.13;;;3.90;99.90;;;;;;5052207;28;20540;-62
2021/12/14 08:15:29;;;;;;;8.38;6.47;;;3.80;99.90;;;;;;5052201;28;20029;-64
2021/12/14 08:18:11;;;;;;;11.82;8.00;;;3.70;99.90;;;;;;5051511;28;20028;-63
2021/12/14 08:20:41;;;;;;;9.63;7.28;;;4.30;99.90;;;;;;5052172;28;20025;-62
2021/12/14 08:23:18;;;;;;;9.70;7.25;;;3.50;99.90;;;;;;5051473;28;20032;-62
2021/12/14 08:25:44;;;;;;;8.23;6.38;;;6.90;99.90;;;;;;5051873;28;20087;-62
2021/12/14 08:28:11;;;;;;;12.02;7.38;;;3.70;99.90;;;;;;5051969;28;20032;-62
2021/12/14 08:30:41;;;;;;;10.50;8.05;;;4.20;99.90;;;;;;5052081;28;20029;-62
2021/12/14 08:33:19;;;;;;;11.52;7.80;;;4.00;99.90;;;;;;5051072;28;20505;-64
2021/12/14 08:35:45;;;;;;;10.77;7.85;;;3.60;99.90;;;;;;5049880;28;20040;-63
2021/12/14 08:38:14;;;;;;;11.82;8.05;;;3.70;99.90;;;;;;5043558;28;20386;-64
2021/12/14 08:40:44;;;;;;;12.10;8.35;;;3.60;99.90;;;;;;5052169;28;20029;-66
2021/12/14 08:43:20;;;;;;;13.18;8.38;;;3.60;99.90;;;;;;5051145;28;20035;-63
2021/12/14 08:45:53;;;;;;;14.98;9.25;;;3.90;99.90;;;;;;5051926;28;20047;-64
2021/12/14 08:48:23;;;;;;;10.90;8.10;;;3.90;99.90;;;;;;5057279;28;20025;-66
2021/12/14 08:51:00;;;;;;;12.90;8.73;;;4.10;99.90;;;;;;5054540;28;20056;-63
2021/12/14 08:53:33;;;;;;;10.75;8.38;;;4.10;99.90;;;;;;5050910;28;20044;-64
2021/12/14 08:56:02;;;;;;;11.80;8.52;;;4.20;99.90;;;;;;5051750;28;20067;-64
2021/12/14 08:58:29;;;;;;;14.57;10.13;;;3.60;99.90;;;;;;5051141;28;20021;-63
2021/12/14 09:01:02;;;;;;;10.85;8.55;;;3.80;99.90;;;;;;5051450;28;20044;-63
2021/12/14 09:03:39;;;;;;;10.45;7.47;;;4.10;99.90;;;;;;5049976;28;20078;-63
2021/12/14 09:06:10;;;;;;;8.50;6.70;;;3.90;99.90;;;;;;5050299;28;20091;-63
2021/12/14 09:08:37;;;;;;;11.27;8.57;;;4.30;99.90;;;;;;5042805;28;20021;-63
2021/12/14 09:11:04;;;;;;;8.00;6.43;;;4.50;99.90;;;;;;5050765;28;20502;-62
2021/12/14 09:13:30;;;;;;;9.15;6.75;;;4.50;99.90;;;;;;5049802;28;20506;-62
2021/12/14 09:16:10;;;;;;;10.27;6.07;;;4.70;99.90;;;;;;5050557;28;20035;-62
2021/12/14 09:18:40;;;;;;;8.10;5.63;;;4.60;99.90;;;;;;5049860;28;20128;-63
2021/12/14 09:21:19;;;;;;;7.22;5.43;;;5.70;99.90;;;;;;5050588;28;20100;-61
2021/12/14 09:23:49;;;;;;;8.00;6.10;;;5.10;99.90;;;;;;5049800;28;20022;-62
2021/12/14 09:26:19;;;;;;;7.55;5.95;;;4.20;99.90;;;;;;5050528;28;20028;-62
2021/12/14 09:28:46;;;;;;;8.00;5.32;;;6.00;99.90;;;;;;5050482;28;20370;-62
2021/12/14 09:31:19;;;;;;;7.90;6.00;;;5.70;99.90;;;;;;5050191;28;20021;-61
2021/12/14 09:33:46;;;;;;;8.70;6.10;;;6.30;99.90;;;;;;5048822;28;20039;-63
2021/12/14 09:36:13;;;;;;;8.15;5.70;;;4.90;99.90;;;;;;5046500;28;20030;-62
2021/12/14 09:38:43;;;;;;;6.60;5.60;;;6.70;99.90;;;;;;5040173;28;20475;-61
2021/12/14 09:41:12;;;;;;;9.35;6.05;;;7.10;99.90;;;;;;5030879;28;20026;-62
2021/12/14 09:43:39;;;;;;;9.00;6.07;;;5.70;99.90;;;;;;5029485;28;20427;-63
2021/12/14 09:46:08;;;;;;;7.25;5.65;;;6.10;99.90;;;;;;5032213;28;20092;-61
2021/12/14 09:48:44;;;;;;;6.63;5.55;;;6.80;99.90;;;;;;5033288;28;20200;-62
2021/12/14 09:51:14;;;;;;;7.65;6.45;;;6.60;99.90;;;;;;5032496;28;20021;-60
2021/12/14 09:53:44;;;;;;;7.50;6.05;;;6.40;99.90;;;;;;5032909;28;20025;-61
2021/12/14 09:56:13;;;;;;;9.38;5.47;;;7.00;99.90;;;;;;5033773;28;20030;-63
2021/12/14 09:58:46;;;;;;;5.72;5.18;;;6.00;99.90;;;;;;5033494;28;20037;-65
2021/12/14 10:01:26;;;;;;;7.63;5.30;;;7.60;99.90;;;;;;5033831;28;20024;-64
2021/12/14 10:03:55;;;;;;;7.60;5.65;;;6.80;99.90;;;;;;5041091;28;20021;-63
2021/12/14 10:06:25;;;;;;;5.45;4.95;;;6.70;99.90;;;;;;5041688;28;20022;-63
2021/12/14 10:08:58;;;;;;;8.80;5.60;;;7.00;99.90;;;;;;5012907;28;1124614;-62
2021/12/14 10:11:43;;;;;;;7.65;5.50;;;6.70;99.90;;;;;;5054632;28;20033;-63
2021/12/14 10:14:12;;;;;;;5.53;4.93;;;7.10;99.90;;;;;;5054116;28;20025;-65
2021/12/14 10:16:37;;;;;;;10.70;5.03;;;6.90;99.90;;;;;;5054682;28;20394;-64
2021/12/14 10:19:12;;;;;;;6.20;5.55;;;6.90;99.90;;;;;;5054042;28;20097;-64
2021/12/14 10:22:02;;;;;;;6.53;5.32;;;7.60;99.90;;;;;;5054611;28;20021;-64
2021/12/14 10:24:27;;;;;;;7.93;5.20;;;7.10;99.90;;;;;;5053828;28;20025;-64
2021/12/14 10:26:58;;;;;;;6.88;5.65;;;7.20;99.90;;;;;;5051322;28;20025;-63
2021/12/14 10:29:26;;;;;;;5.53;5.03;;;7.40;99.90;;;;;;5054239;28;20090;-63
2021/12/14 10:32:02;;;;;;;6.25;5.43;;;6.30;99.90;;;;;;5039672;28;20427;-64
2021/12/14 10:34:34;;;;;;;6.55;5.32;;;7.60;99.90;;;;;;5046307;28;20029;-63
2021/12/14 10:37:13;;;;;;;6.35;5.70;;;8.40;99.90;;;;;;5047161;28;20017;-63
2021/12/14 10:42:39;;;;;;;9.00;5.82;;;8.30;99.90;;;;;;5051026;28;20029;-63
2021/12/14 10:45:10;;;;;;;6.25;5.65;;;8.80;99.90;;;;;;5054006;28;20387;-63
2021/12/14 10:47:36;;;;;;;6.45;5.13;;;9.30;99.90;;;;;;5053800;28;20021;-63
2021/12/14 10:50:11;;;;;;;5.75;5.18;;;9.20;99.90;;;;;;5053750;28;20537;-63
2021/12/14 10:52:42;;;;;;;6.18;5.20;;;9.90;99.90;;;;;;5053604;28;20589;-63
2021/12/14 10:55:14;;;;;;;5.30;4.80;;;8.60;99.90;;;;;;5053624;28;20075;-64
2021/12/14 10:57:40;;;;;;;6.18;5.03;;;9.00;99.90;;;;;;5052856;28;20273;-63
2021/12/14 11:00:14;;;;;;;12.82;4.80;;;9.40;99.90;;;;;;5053924;28;20397;-62
2021/12/14 11:02:42;;;;;;;5.47;4.78;;;10.30;99.90;;;;;;5053420;28;20024;-63
2021/12/14 11:05:16;;;;;;;8.00;4.53;;;11.10;99.90;;;;;;5052461;28;20021;-63
2021/12/14 11:07:45;;;;;;;9.68;4.72;;;13.20;99.90;;;;;;5044800;28;20025;-63
2021/12/14 11:10:22;;;;;;;5.18;4.03;;;12.80;99.90;;;;;;5054179;28;20033;-64
2021/12/14 11:12:54;;;;;;;7.85;4.63;;;11.90;99.90;;;;;;5054696;28;20027;-67
2021/12/14 11:15:35;;;;;;;7.63;4.47;;;12.80;99.90;;;;;;5054160;28;20017;-68
2021/12/14 11:18:09;;;;;;;6.43;5.05;;;13.40;99.90;;;;;;5054077;28;20040;-68
2021/12/14 11:20:37;;;;;;;13.70;4.78;;;12.50;99.90;;;;;;5054742;28;20376;-71
2021/12/14 11:23:05;;;;;;;10.32;4.45;;;13.80;99.90;;;;;;5053302;28;20092;-68
2021/12/14 11:25:33;;;;;;;6.05;4.60;;;14.10;99.90;;;;;;5053652;28;20021;-68
2021/12/14 11:28:09;;;;;;;7.35;3.88;;;13.90;99.90;;;;;;5053912;28;20028;-68
2021/12/14 11:30:43;;;;;;;5.28;4.40;;;13.70;99.90;;;;;;5053545;28;20024;-67
2021/12/14 11:33:26;;;;;;;7.32;3.88;;;13.60;99.90;;;;;;5052302;28;20435;-69
2021/12/14 11:36:12;;;;;;;3.75;3.42;;;14.50;99.90;;;;;;5052615;28;20028;-65
2021/12/14 11:38:48;;;;;;;5.07;4.00;;;14.50;99.90;;;;;;5052530;28;20029;-66
2021/12/14 11:41:22;;;;;;;5.93;3.95;;;14.80;99.90;;;;;;5054200;28;20025;-71
2021/12/14 11:44:07;;;;;;;16.42;4.35;;;15.30;99.90;;;;;;5052360;28;20415;-71
2021/12/14 11:46:55;;;;;;;5.78;4.45;;;15.80;99.90;;;;;;5052176;28;20032;-72
2021/12/14 11:49:40;;;;;;;5.68;3.72;;;14.50;99.90;;;;;;5052051;28;20033;-72
2021/12/14 11:52:06;;;;;;;4.82;4.32;;;12.90;99.90;;;;;;5052115;28;20028;-63
2021/12/14 11:54:41;;;;;;;4.75;3.88;;;12.70;99.90;;;;;;5052503;28;20040;-64
2021/12/14 11:57:07;;;;;;;4.70;3.65;;;12.80;99.90;;;;;;5053305;28;20025;-65
2021/12/14 11:59:33;;;;;;;4.13;3.70;;;14.10;99.90;;;;;;5055976;28;20036;-70
2021/12/14 12:02:01;;;;;;;4.68;3.83;;;13.40;99.90;;;;;;5059185;28;20363;-70
2021/12/14 12:04:37;;;;;;;5.95;3.30;;;15.00;99.90;;;;;;5056138;28;20040;-71
2021/12/14 12:09:46;;;;;;;6.60;3.55;;;15.30;99.90;;;;;;5049734;28;20186;-65
2021/12/14 12:12:11;;;;;;;12.70;3.95;;;15.10;99.90;;;;;;5052354;28;20033;-65
2021/12/14 12:14:55;;;;;;;8.32;4.15;;;15.00;99.90;;;;;;5052299;28;20044;-64
2021/12/14 12:17:27;;;;;;;18.58;4.10;;;15.10;99.90;;;;;;5052794;28;20029;-66
2021/12/14 12:20:19;;;;;;;9.00;4.20;;;14.40;99.90;;;;;;5051327;28;20029;-64
2021/12/14 12:22:44;;;;;;;10.52;4.18;;;13.30;99.90;;;;;;5050592;28;20029;-65
2021/12/14 12:25:16;;;;;;;7.72;3.85;;;12.70;99.90;;;;;;5052325;28;20376;-69
2021/12/14 12:27:51;;;;;;;10.73;4.20;;;12.80;99.90;;;;;;5052276;28;20027;-68
2021/12/14 12:30:30;;;;;;;8.50;4.00;;;12.80;99.90;;;;;;5051616;28;20033;-65
2021/12/14 12:33:00;;;;;;;6.50;4.07;;;12.80;99.90;;;;;;5051703;28;20036;-63
2021/12/14 12:35:35;;;;;;;7.28;3.58;;;13.10;99.90;;;;;;5051657;28;20025;-64
2021/12/14 12:38:18;;;;;;;6.00;3.75;;;12.90;99.90;;;;;;5052090;28;20099;-64
2021/12/14 12:40:48;;;;;;;;;;;13.60;99.90;;;;;;5052873;28;20016;-64
2021/12/14 12:43:15;;;;;;;4.13;3.45;;;13.30;99.90;;;;;;5051377;28;20453;-64
2021/12/14 12:45:56;;;;;;;5.30;3.65;;;13.70;99.90;;;;;;5050027;28;20098;-70
2021/12/14 12:48:59;;;;;;;4.47;3.45;;;14.10;99.90;;;;;;5051899;28;20029;-69
2021/12/14 12:52:19;;;;;;;5.75;3.20;;;13.70;99.90;;;;;;5009146;28;20036;-70
2021/12/14 12:55:11;;;;;;;4.85;3.40;;;12.60;99.90;;;;;;4987167;28;20563;-69
2021/12/14 12:57:43;;;;;;;6.63;3.67;;;13.20;99.90;;;;;;5046460;28;20120;-63
2021/12/14 13:00:09;;;;;;;4.05;3.38;;;12.10;99.90;;;;;;5051580;28;20446;-64
2021/12/14 13:02:53;;;;;;;3.53;3.22;;;14.10;99.90;;;;;;5049299;28;20029;-63
2021/12/14 13:05:43;;;;;;;6.00;3.08;;;14.80;99.90;;;;;;5051775;28;20368;-63
2021/12/14 13:08:27;;;;;;;7.00;3.55;;;15.10;99.90;;;;;;5052065;28;20055;-63
2021/12/14 13:10:58;;;;;;;5.72;3.58;;;14.70;99.90;;;;;;5037310;28;20398;-64
2021/12/14 13:13:47;;;;;;;4.33;3.57;;;14.20;99.90;;;;;;5031241;28;20434;-63
2021/12/14 13:16:20;;;;;;;4.40;3.20;;;13.10;99.90;;;;;;5049917;28;20275;-63
2021/12/14 13:18:46;;;;;;;5.00;3.53;;;13.90;99.90;;;;;;5036326;28;20033;-64
2021/12/14 13:21:22;;;;;;;5.65;3.55;;;13.50;99.90;;;;;;5085169;23;20206;-69
2021/12/14 13:23:50;;;;;;;3.47;3.20;;;13.70;99.90;;;;;;5076360;28;20020;-68
2021/12/14 13:26:35;;;;;;;6.45;3.17;;;13.70;99.90;;;;;;5076694;28;20025;-68
2021/12/14 13:29:34;;;;;;;3.42;2.95;;;13.50;99.90;;;;;;5076430;28;20020;-69
2021/12/14 13:32:15;;;;;;;5.07;3.50;;;13.30;99.90;;;;;;5039537;28;20145;-69
2021/12/14 13:34:52;;;;;;;6.82;3.78;;;13.20;99.90;;;;;;5054686;28;20396;-69
2021/12/14 13:37:25;;;;;;;4.10;3.50;;;13.10;99.90;;;;;;5055003;28;20028;-68
2021/12/14 13:39:54;;;;;;;4.43;3.67;;;12.60;99.90;;;;;;5056650;28;20022;-68
2021/12/14 13:42:33;;;;;;;6.20;3.45;;;;;;;;;;5056284;28;20029;-68
2021/12/14 13:45:00;;;;;;;4.45;3.30;;;12.40;99.90;;;;;;5055145;28;20017;-69
2021/12/14 13:47:27;;;;;;;3.85;3.45;;;;;;;;;;5055316;28;20220;-68
2021/12/14 13:49:55;;;;;;;4.45;3.55;;;;;;;;;;5055174;28;20113;-69
2021/12/14 13:52:21;;;;;;;5.15;3.60;;;13.60;99.90;;;;;;5055438;28;20100;-69
2021/12/14 13:55:23;;;;;;;4.68;3.53;;;13.60;99.90;;;;;;5054821;28;20165;-69
2021/12/14 13:57:59;;;;;;;4.88;3.50;;;12.30;99.90;;;;;;5055805;28;20029;-68
2021/12/14 14:01:12;;;;;;;5.80;3.95;;;11.80;99.90;;;;;;5054908;28;20031;-68
2021/12/14 14:03:42;;;;;;;7.72;4.07;;;11.70;99.90;;;;;;5032095;28;20057;-67